sensor_id;sensor_type;location;lat;lon;timestamp;pressure;altitude;pressure_sealevel;temperature;humidity
73516;BME280;61763;51.416;5.442;2023-05-21T00:02:14;101700.13;;;12.78;100.00
73516;BME280;61763;51.416;5.442;2023-05-21T00:04:41;101700.22;;;12.77;100.00
73516;BME280;61763;51.416;5.442;2023-05-21T00:07:07;101697.94;;;12.68;100.00
73516;BME280;61763;51.416;5.442;2023-05-21T00:09:34;101691.69;;;12.66;100.00
73516;BME280;61763;51.416;5.442;2023-05-21T00:11:59;101685.63;;;12.60;100.00
73516;BME280;61763;51.416;5.442;2023-05-21T00:14:25;101683.16;;;12.54;100.00
73516;BME280;61763;51.416;5.442;2023-05-21T00:16:50;101695.47;;;12.61;100.00
73516;BME280;61763;51.416;5.442;2023-05-21T00:19:16;101682.44;;;12.51;100.00
73516;BME280;61763;51.416;5.442;2023-05-21T00:21:41;101679.25;;;12.41;100.00
73516;BME280;61763;51.416;5.442;2023-05-21T00:24:08;101680.34;;;12.37;100.00
73516;BME280;61763;51.416;5.442;2023-05-21T00:26:33;101684.94;;;12.35;100.00
73516;BME280;61763;51.416;5.442;2023-05-21T00:28:59;101680.94;;;12.23;100.00
73516;BME280;61763;51.416;5.442;2023-05-21T00:31:24;101675.59;;;12.21;100.00
73516;BME280;61763;51.416;5.442;2023-05-21T00:33:50;101674.38;;;12.08;100.00
73516;BME280;61763;51.416;5.442;2023-05-21T00:36:15;101679.06;;;12.04;100.00
73516;BME280;61763;51.416;5.442;2023-05-21T00:38:42;101681.44;;;12.12;100.00
73516;BME280;61763;51.416;5.442;2023-05-21T00:41:11;101675.69;;;12.20;100.00
73516;BME280;61763;51.416;5.442;2023-05-21T00:43:37;101670.41;;;12.17;100.00
73516;BME280;61763;51.416;5.442;2023-05-21T00:46:09;101675.47;;;12.04;100.00
73516;BME280;61763;51.416;5.442;2023-05-21T00:48:36;101680.66;;;12.08;100.00
73516;BME280;61763;51.416;5.442;2023-05-21T00:51:02;101679.72;;;12.09;100.00
73516;BME280;61763;51.416;5.442;2023-05-21T00:53:28;101672.38;;;12.13;100.00
73516;BME280;61763;51.416;5.442;2023-05-21T00:55:54;101676.16;;;12.09;100.00
73516;BME280;61763;51.416;5.442;2023-05-21T00:58:20;101680.34;;;12.16;100.00
73516;BME280;61763;51.416;5.442;2023-05-21T01:00:45;101675.09;;;12.13;100.00
73516;BME280;61763;51.416;5.442;2023-05-21T01:03:11;101671.94;;;12.02;100.00
73516;BME280;61763;51.416;5.442;2023-05-21T01:05:37;101668.84;;;11.89;100.00
73516;BME280;61763;51.416;5.442;2023-05-21T01:08:02;101668.63;;;11.73;100.00
73516;BME280;61763;51.416;5.442;2023-05-21T01:10:29;101672.03;;;11.78;100.00
73516;BME280;61763;51.416;5.442;2023-05-21T01:12:56;101674.09;;;11.71;100.00
73516;BME280;61763;51.416;5.442;2023-05-21T01:15:22;101676.06;;;11.68;100.00
73516;BME280;61763;51.416;5.442;2023-05-21T01:17:48;101667.31;;;11.61;100.00
73516;BME280;61763;51.416;5.442;2023-05-21T01:20:15;101672.09;;;11.54;100.00
73516;BME280;61763;51.416;5.442;2023-05-21T01:22:51;101673.97;;;11.52;100.00
73516;BME280;61763;51.416;5.442;2023-05-21T01:25:17;101676.69;;;11.52;100.00
73516;BME280;61763;51.416;5.442;2023-05-21T01:27:43;101666.56;;;11.57;100.00
73516;BME280;61763;51.416;5.442;2023-05-21T01:30:09;101669.47;;;11.53;100.00
73516;BME280;61763;51.416;5.442;2023-05-21T01:32:47;101667.06;;;11.45;100.00
73516;BME280;61763;51.416;5.442;2023-05-21T01:35:19;101662.50;;;11.47;100.00
73516;BME280;61763;51.416;5.442;2023-05-21T01:37:56;101671.72;;;11.42;100.00
73516;BME280;61763;51.416;5.442;2023-05-21T01:40:44;101670.84;;;11.41;100.00
73516;BME280;61763;51.416;5.442;2023-05-21T01:43:11;101665.44;;;11.41;100.00
73516;BME280;61763;51.416;5.442;2023-05-21T01:45:39;101665.31;;;11.44;100.00
73516;BME280;61763;51.416;5.442;2023-05-21T01:48:07;101665.31;;;11.44;100.00
73516;BME280;61763;51.416;5.442;2023-05-21T01:50:34;101669.88;;;11.42;100.00
73516;BME280;61763;51.416;5.442;2023-05-21T01:53:01;101663.56;;;11.43;100.00
73516;BME280;61763;51.416;5.442;2023-05-21T01:55:28;101657.44;;;11.38;100.00
73516;BME280;61763;51.416;5.442;2023-05-21T01:57:54;101659.41;;;11.34;100.00
73516;BME280;61763;51.416;5.442;2023-05-21T02:00:21;101663.03;;;11.33;100.00
73516;BME280;61763;51.416;5.442;2023-05-21T02:02:48;101656.81;;;11.31;100.00
73516;BME280;61763;51.416;5.442;2023-05-21T02:05:13;101652.09;;;11.36;100.00
73516;BME280;61763;51.416;5.442;2023-05-21T02:07:39;101653.13;;;11.34;100.00
73516;BME280;61763;51.416;5.442;2023-05-21T02:10:07;101657.56;;;11.35;100.00
73516;BME280;61763;51.416;5.442;2023-05-21T02:12:32;101652.03;;;11.38;100.00
73516;BME280;61763;51.416;5.442;2023-05-21T02:14:57;101646.63;;;11.38;100.00
73516;BME280;61763;51.416;5.442;2023-05-21T02:17:24;101651.03;;;11.40;100.00
73516;BME280;61763;51.416;5.442;2023-05-21T02:19:50;101652.94;;;11.38;100.00
73516;BME280;61763;51.416;5.442;2023-05-21T02:22:15;101645.88;;;11.34;100.00
73516;BME280;61763;51.416;5.442;2023-05-21T02:24:40;101652.41;;;11.29;100.00
73516;BME280;61763;51.416;5.442;2023-05-21T02:27:07;101647.25;;;11.22;100.00
73516;BME280;61763;51.416;5.442;2023-05-21T02:29:34;101654.31;;;11.27;100.00
73516;BME280;61763;51.416;5.442;2023-05-21T02:32:00;101641.72;;;11.26;100.00
73516;BME280;61763;51.416;5.442;2023-05-21T02:34:25;101649.03;;;11.24;100.00
73516;BME280;61763;51.416;5.442;2023-05-21T02:36:50;101643.81;;;11.19;100.00
73516;BME280;61763;51.416;5.442;2023-05-21T02:39:17;101655.13;;;11.29;100.00
73516;BME280;61763;51.416;5.442;2023-05-21T02:41:44;101656.13;;;11.26;100.00
73516;BME280;61763;51.416;5.442;2023-05-21T02:44:10;101651.69;;;11.25;100.00
73516;BME280;61763;51.416;5.442;2023-05-21T02:46:35;101648.19;;;11.21;100.00
73516;BME280;61763;51.416;5.442;2023-05-21T02:49:00;101645.38;;;11.25;100.00
73516;BME280;61763;51.416;5.442;2023-05-21T02:51:26;101647.25;;;11.22;100.00
73516;BME280;61763;51.416;5.442;2023-05-21T02:53:51;101645.75;;;11.15;100.00
73516;BME280;61763;51.416;5.442;2023-05-21T02:56:17;101635.06;;;11.12;100.00
73516;BME280;61763;51.416;5.442;2023-05-21T02:58:42;101635.66;;;11.20;100.00
73516;BME280;61763;51.416;5.442;2023-05-21T03:01:08;101636.59;;;11.19;100.00
73516;BME280;61763;51.416;5.442;2023-05-21T03:03:33;101629.00;;;11.29;100.00
73516;BME280;61763;51.416;5.442;2023-05-21T03:05:59;101622.56;;;11.32;100.00
73516;BME280;61763;51.416;5.442;2023-05-21T03:08:24;101621.81;;;11.28;100.00
73516;BME280;61763;51.416;5.442;2023-05-21T03:10:50;101625.47;;;11.27;100.00
73516;BME280;61763;51.416;5.442;2023-05-21T03:13:15;101620.81;;;11.31;100.00
73516;BME280;61763;51.416;5.442;2023-05-21T03:15:41;101624.34;;;11.33;100.00
73516;BME280;61763;51.416;5.442;2023-05-21T03:18:08;101619.44;;;11.43;100.00
73516;BME280;61763;51.416;5.442;2023-05-21T03:20:33;101612.19;;;11.43;100.00
73516;BME280;61763;51.416;5.442;2023-05-21T03:22:59;101621.25;;;11.42;100.00
73516;BME280;61763;51.416;5.442;2023-05-21T03:25:28;101618.47;;;11.44;100.00
73516;BME280;61763;51.416;5.442;2023-05-21T03:27:53;101605.94;;;11.43;100.00
73516;BME280;61763;51.416;5.442;2023-05-21T03:30:19;101618.78;;;11.36;100.00
73516;BME280;61763;51.416;5.442;2023-05-21T03:32:45;101621.63;;;11.33;100.00
73516;BME280;61763;51.416;5.442;2023-05-21T03:35:11;101626.91;;;11.36;100.00
73516;BME280;61763;51.416;5.442;2023-05-21T03:37:36;101625.13;;;11.35;100.00
73516;BME280;61763;51.416;5.442;2023-05-21T03:40:01;101622.38;;;11.36;100.00
73516;BME280;61763;51.416;5.442;2023-05-21T03:42:27;101626.03;;;11.35;100.00
73516;BME280;61763;51.416;5.442;2023-05-21T03:44:53;101625.97;;;11.37;100.00
73516;BME280;61763;51.416;5.442;2023-05-21T03:47:18;101624.72;;;11.46;100.00
73516;BME280;61763;51.416;5.442;2023-05-21T03:49:44;101616.75;;;11.43;100.00
73516;BME280;61763;51.416;5.442;2023-05-21T03:52:09;101616.81;;;11.41;100.00
73516;BME280;61763;51.416;5.442;2023-05-21T03:54:35;101610.50;;;11.40;100.00
73516;BME280;61763;51.416;5.442;2023-05-21T03:57:00;101617.72;;;11.40;100.00
73516;BME280;61763;51.416;5.442;2023-05-21T03:59:26;101615.03;;;11.40;100.00
73516;BME280;61763;51.416;5.442;2023-05-21T04:01:51;101616.88;;;11.39;100.00
73516;BME280;61763;51.416;5.442;2023-05-21T04:04:16;101610.69;;;11.36;100.00
73516;BME280;61763;51.416;5.442;2023-05-21T04:06:42;101616.75;;;11.43;100.00
73516;BME280;61763;51.416;5.442;2023-05-21T04:09:07;101612.06;;;11.46;100.00
73516;BME280;61763;51.416;5.442;2023-05-21T04:11:32;101618.34;;;11.47;100.00
73516;BME280;61763;51.416;5.442;2023-05-21T04:13:58;101614.56;;;11.51;100.00
73516;BME280;61763;51.416;5.442;2023-05-21T04:16:23;101625.25;;;11.54;100.00
73516;BME280;61763;51.416;5.442;2023-05-21T04:18:49;101627.03;;;11.55;100.00
73516;BME280;61763;51.416;5.442;2023-05-21T04:21:14;101623.50;;;11.53;100.00
73516;BME280;61763;51.416;5.442;2023-05-21T04:23:40;101626.03;;;11.57;100.00
73516;BME280;61763;51.416;5.442;2023-05-21T04:26:05;101622.19;;;11.63;100.00
73516;BME280;61763;51.416;5.442;2023-05-21T04:28:31;101629.41;;;11.63;100.00
73516;BME280;61763;51.416;5.442;2023-05-21T04:30:57;101634.53;;;11.69;100.00
73516;BME280;61763;51.416;5.442;2023-05-21T04:33:22;101634.38;;;11.73;100.00
73516;BME280;61763;51.416;5.442;2023-05-21T04:35:50;101633.03;;;11.84;100.00
73516;BME280;61763;51.416;5.442;2023-05-21T04:38:16;101638.06;;;11.93;100.00
73516;BME280;61763;51.416;5.442;2023-05-21T04:40:46;101635.09;;;11.99;100.00
73516;BME280;61763;51.416;5.442;2023-05-21T04:43:12;101632.94;;;12.07;100.00
73516;BME280;61763;51.416;5.442;2023-05-21T04:45:37;101643.47;;;12.14;100.00
73516;BME280;61763;51.416;5.442;2023-05-21T04:48:03;101646.03;;;12.17;100.00
73516;BME280;61763;51.416;5.442;2023-05-21T04:50:28;101633.38;;;12.17;100.00
73516;BME280;61763;51.416;5.442;2023-05-21T04:52:55;101637.50;;;12.26;100.00
73516;BME280;61763;51.416;5.442;2023-05-21T04:55:20;101637.06;;;12.37;100.00
73516;BME280;61763;51.416;5.442;2023-05-21T04:57:47;101632.44;;;12.39;100.00
73516;BME280;61763;51.416;5.442;2023-05-21T05:00:12;101633.91;;;12.46;100.00
73516;BME280;61763;51.416;5.442;2023-05-21T05:02:38;101626.25;;;12.56;100.00
73516;BME280;61763;51.416;5.442;2023-05-21T05:05:04;101630.63;;;12.58;100.00
73516;BME280;61763;51.416;5.442;2023-05-21T05:07:29;101622.81;;;12.71;100.00
73516;BME280;61763;51.416;5.442;2023-05-21T05:09:55;101624.44;;;12.75;100.00
73516;BME280;61763;51.416;5.442;2023-05-21T05:12:20;101630.44;;;12.82;100.00
73516;BME280;61763;51.416;5.442;2023-05-21T05:14:46;101622.84;;;12.90;100.00
73516;BME280;61763;51.416;5.442;2023-05-21T05:17:11;101627.66;;;13.03;100.00
73516;BME280;61763;51.416;5.442;2023-05-21T05:19:39;101626.41;;;13.10;100.00
73516;BME280;61763;51.416;5.442;2023-05-21T05:22:05;101626.09;;;13.16;100.00
73516;BME280;61763;51.416;5.442;2023-05-21T05:24:30;101620.97;;;13.29;100.00
73516;BME280;61763;51.416;5.442;2023-05-21T05:26:56;101625.16;;;13.36;100.00
73516;BME280;61763;51.416;5.442;2023-05-21T05:29:21;101615.75;;;13.43;100.00
73516;BME280;61763;51.416;5.442;2023-05-21T05:31:46;101607.91;;;13.56;100.00
73516;BME280;61763;51.416;5.442;2023-05-21T05:34:12;101612.06;;;13.63;100.00
73516;BME280;61763;51.416;5.442;2023-05-21T05:36:37;101612.19;;;13.78;100.00
73516;BME280;61763;51.416;5.442;2023-05-21T05:39:02;101620.91;;;13.84;100.00
73516;BME280;61763;51.416;5.442;2023-05-21T05:41:28;101624.66;;;13.99;100.00
73516;BME280;61763;51.416;5.442;2023-05-21T05:43:53;101619.81;;;14.06;100.00
73516;BME280;61763;51.416;5.442;2023-05-21T05:46:19;101630.16;;;14.15;100.00
73516;BME280;61763;51.416;5.442;2023-05-21T05:48:44;101620.25;;;14.32;100.00
73516;BME280;61763;51.416;5.442;2023-05-21T05:51:09;101623.81;;;14.32;100.00
73516;BME280;61763;51.416;5.442;2023-05-21T05:53:36;101621.50;;;14.42;100.00
73516;BME280;61763;51.416;5.442;2023-05-21T05:56:02;101620.50;;;14.61;100.00
73516;BME280;61763;51.416;5.442;2023-05-21T05:58:29;101611.53;;;14.59;100.00
73516;BME280;61763;51.416;5.442;2023-05-21T06:00:54;101614.31;;;14.75;100.00
73516;BME280;61763;51.416;5.442;2023-05-21T06:03:20;101612.66;;;14.72;100.00
73516;BME280;61763;51.416;5.442;2023-05-21T06:05:45;101618.09;;;14.88;100.00
73516;BME280;61763;51.416;5.442;2023-05-21T06:08:11;101612.41;;;14.77;100.00
73516;BME280;61763;51.416;5.442;2023-05-21T06:10:36;101611.28;;;14.97;100.00
73516;BME280;61763;51.416;5.442;2023-05-21T06:13:01;101612.78;;;15.02;100.00
73516;BME280;61763;51.416;5.442;2023-05-21T06:15:27;101617.63;;;14.97;100.00
73516;BME280;61763;51.416;5.442;2023-05-21T06:17:52;101610.94;;;14.87;100.00
73516;BME280;61763;51.416;5.442;2023-05-21T06:20:18;101607.06;;;15.07;100.00
73516;BME280;61763;51.416;5.442;2023-05-21T06:22:43;101615.03;;;15.26;100.00
73516;BME280;61763;51.416;5.442;2023-05-21T06:25:10;101620.19;;;15.47;100.00
73516;BME280;61763;51.416;5.442;2023-05-21T06:27:36;101612.31;;;15.26;100.00
73516;BME280;61763;51.416;5.442;2023-05-21T06:30:02;101616.09;;;15.39;100.00
73516;BME280;61763;51.416;5.442;2023-05-21T06:32:27;101610.81;;;15.52;100.00
73516;BME280;61763;51.416;5.442;2023-05-21T06:34:52;101621.41;;;15.57;100.00
73516;BME280;61763;51.416;5.442;2023-05-21T06:37:19;101621.41;;;15.57;100.00
73516;BME280;61763;51.416;5.442;2023-05-21T06:39:47;101621.78;;;15.35;100.00
73516;BME280;61763;51.416;5.442;2023-05-21T06:42:13;101618.81;;;15.39;100.00
73516;BME280;61763;51.416;5.442;2023-05-21T06:44:38;101622.25;;;15.43;100.00
73516;BME280;61763;51.416;5.442;2023-05-21T06:47:04;101624.69;;;15.48;100.00
73516;BME280;61763;51.416;5.442;2023-05-21T06:49:29;101618.88;;;15.54;100.00
73516;BME280;61763;51.416;5.442;2023-05-21T06:51:54;101625.00;;;15.57;100.00
73516;BME280;61763;51.416;5.442;2023-05-21T06:54:20;101611.94;;;15.64;100.00
73516;BME280;61763;51.416;5.442;2023-05-21T06:56:45;101614.03;;;16.05;100.00
73516;BME280;61763;51.416;5.442;2023-05-21T06:59:11;101594.59;;;16.55;100.00
73516;BME280;61763;51.416;5.442;2023-05-21T07:01:36;101597.72;;;16.92;100.00
73516;BME280;61763;51.416;5.442;2023-05-21T07:04:02;101593.94;;;17.22;100.00
73516;BME280;61763;51.416;5.442;2023-05-21T07:06:27;101592.19;;;17.21;100.00
73516;BME280;61763;51.416;5.442;2023-05-21T07:08:52;101595.50;;;17.26;100.00
73516;BME280;61763;51.416;5.442;2023-05-21T07:11:18;101594.06;;;17.20;100.00
73516;BME280;61763;51.416;5.442;2023-05-21T07:13:43;101599.13;;;17.12;100.00
73516;BME280;61763;51.416;5.442;2023-05-21T07:16:08;101593.63;;;16.99;100.00
73516;BME280;61763;51.416;5.442;2023-05-21T07:18:34;101590.28;;;17.08;100.00
73516;BME280;61763;51.416;5.442;2023-05-21T07:20:59;101593.69;;;17.12;100.00
73516;BME280;61763;51.416;5.442;2023-05-21T07:23:25;101594.91;;;17.21;100.00
73516;BME280;61763;51.416;5.442;2023-05-21T07:25:50;101588.69;;;17.19;100.00
73516;BME280;61763;51.416;5.442;2023-05-21T07:28:16;101601.50;;;17.31;100.00
73516;BME280;61763;51.416;5.442;2023-05-21T07:30:42;101591.22;;;17.22;100.00
73516;BME280;61763;51.416;5.442;2023-05-21T07:33:07;101583.25;;;17.19;100.00
73516;BME280;61763;51.416;5.442;2023-05-21T07:35:32;101590.31;;;16.94;100.00
73516;BME280;61763;51.416;5.442;2023-05-21T07:37:58;101587.78;;;17.05;100.00
73516;BME280;61763;51.416;5.442;2023-05-21T07:40:23;101582.94;;;17.23;100.00
73516;BME280;61763;51.416;5.442;2023-05-21T07:42:49;101591.81;;;17.67;100.00
73516;BME280;61763;51.416;5.442;2023-05-21T07:45:14;101589.06;;;17.94;100.00
73516;BME280;61763;51.416;5.442;2023-05-21T07:47:40;101588.31;;;18.18;100.00
73516;BME280;61763;51.416;5.442;2023-05-21T07:50:05;101599.88;;;17.96;100.00
73516;BME280;61763;51.416;5.442;2023-05-21T07:52:31;101584.81;;;18.03;100.00
73516;BME280;61763;51.416;5.442;2023-05-21T07:54:56;101586.59;;;18.17;100.00
73516;BME280;61763;51.416;5.442;2023-05-21T07:57:22;101586.34;;;18.33;100.00
73516;BME280;61763;51.416;5.442;2023-05-21T07:59:47;101581.78;;;18.46;100.00
73516;BME280;61763;51.416;5.442;2023-05-21T08:02:12;101585.88;;;18.78;100.00
73516;BME280;61763;51.416;5.442;2023-05-21T08:04:38;101577.91;;;18.87;100.00
73516;BME280;61763;51.416;5.442;2023-05-21T08:07:03;101586.06;;;19.00;99.86
73516;BME280;61763;51.416;5.442;2023-05-21T08:09:30;101584.16;;;19.14;99.84
73516;BME280;61763;51.416;5.442;2023-05-21T08:11:56;101580.50;;;19.26;98.44
73516;BME280;61763;51.416;5.442;2023-05-21T08:14:21;101577.63;;;19.52;96.04
73516;BME280;61763;51.416;5.442;2023-05-21T08:16:47;101573.88;;;19.77;94.97
73516;BME280;61763;51.416;5.442;2023-05-21T08:19:12;101565.09;;;19.85;92.99
73516;BME280;61763;51.416;5.442;2023-05-21T08:21:37;101563.75;;;20.02;90.62
73516;BME280;61763;51.416;5.442;2023-05-21T08:24:03;101565.88;;;19.74;91.94
73516;BME280;61763;51.416;5.442;2023-05-21T08:26:28;101569.94;;;19.33;97.01
73516;BME280;61763;51.416;5.442;2023-05-21T08:28:54;101565.41;;;19.69;94.27
73516;BME280;61763;51.416;5.442;2023-05-21T08:31:19;101572.78;;;19.80;94.06
73516;BME280;61763;51.416;5.442;2023-05-21T08:33:52;101567.44;;;19.78;94.88
73516;BME280;61763;51.416;5.442;2023-05-21T08:36:18;101566.91;;;19.73;93.96
73516;BME280;61763;51.416;5.442;2023-05-21T08:38:43;101563.22;;;19.85;95.48
73516;BME280;61763;51.416;5.442;2023-05-21T08:41:10;101560.53;;;19.97;91.68
73516;BME280;61763;51.416;5.442;2023-05-21T08:43:36;101554.47;;;20.16;93.60
73516;BME280;61763;51.416;5.442;2023-05-21T08:46:02;101552.84;;;20.24;92.22
73516;BME280;61763;51.416;5.442;2023-05-21T08:48:29;101561.63;;;19.70;92.12
73516;BME280;61763;51.416;5.442;2023-05-21T08:50:55;101557.75;;;19.85;92.94
73516;BME280;61763;51.416;5.442;2023-05-21T08:53:21;101548.22;;;20.13;91.88
73516;BME280;61763;51.416;5.442;2023-05-21T08:55:48;101552.47;;;20.52;89.02
73516;BME280;61763;51.416;5.442;2023-05-21T08:58:14;101550.72;;;20.62;90.04
73516;BME280;61763;51.416;5.442;2023-05-21T09:00:40;101545.41;;;20.72;89.50
73516;BME280;61763;51.416;5.442;2023-05-21T09:03:05;101549.22;;;20.58;87.06
73516;BME280;61763;51.416;5.442;2023-05-21T09:05:39;101552.47;;;20.74;87.59
73516;BME280;61763;51.416;5.442;2023-05-21T09:08:06;101553.78;;;21.14;85.29
73516;BME280;61763;51.416;5.442;2023-05-21T09:10:35;101539.06;;;21.47;85.75
73516;BME280;61763;51.416;5.442;2023-05-21T09:13:03;101548.50;;;21.33;82.03
73516;BME280;61763;51.416;5.442;2023-05-21T09:15:29;101542.19;;;21.22;83.63
73516;BME280;61763;51.416;5.442;2023-05-21T09:17:55;101546.88;;;20.76;84.41
73516;BME280;61763;51.416;5.442;2023-05-21T09:20:25;101548.53;;;21.22;85.10
73516;BME280;61763;51.416;5.442;2023-05-21T09:22:51;101553.34;;;21.30;89.11
73516;BME280;61763;51.416;5.442;2023-05-21T09:25:22;101546.81;;;21.53;81.70
73516;BME280;61763;51.416;5.442;2023-05-21T09:27:48;101544.31;;;21.50;81.83
73516;BME280;61763;51.416;5.442;2023-05-21T09:30:15;101549.31;;;21.45;85.16
73516;BME280;61763;51.416;5.442;2023-05-21T09:32:44;101554.06;;;21.76;81.16
73516;BME280;61763;51.416;5.442;2023-05-21T09:35:11;101548.38;;;21.67;81.35
73516;BME280;61763;51.416;5.442;2023-05-21T09:37:44;101544.50;;;21.91;81.97
73516;BME280;61763;51.416;5.442;2023-05-21T09:40:16;101552.13;;;21.87;79.24
73516;BME280;61763;51.416;5.442;2023-05-21T09:42:51;101540.63;;;21.29;83.11
73516;BME280;61763;51.416;5.442;2023-05-21T09:45:18;101536.63;;;21.65;85.24
73516;BME280;61763;51.416;5.442;2023-05-21T09:47:44;101541.34;;;21.75;82.16
73516;BME280;61763;51.416;5.442;2023-05-21T09:50:11;101541.13;;;21.87;82.19
73516;BME280;61763;51.416;5.442;2023-05-21T09:52:37;101534.09;;;22.16;79.00
73516;BME280;61763;51.416;5.442;2023-05-21T09:55:04;101528.88;;;21.92;81.12
73516;BME280;61763;51.416;5.442;2023-05-21T09:57:30;101531.91;;;22.40;79.46
73516;BME280;61763;51.416;5.442;2023-05-21T09:59:55;101527.72;;;22.46;76.46
73516;BME280;61763;51.416;5.442;2023-05-21T10:02:22;101531.63;;;21.92;78.33
73516;BME280;61763;51.416;5.442;2023-05-21T10:04:49;101522.06;;;22.38;79.39
73516;BME280;61763;51.416;5.442;2023-05-21T10:07:20;101525.13;;;22.45;77.34
73516;BME280;61763;51.416;5.442;2023-05-21T10:09:56;101520.75;;;22.83;74.01
73516;BME280;61763;51.416;5.442;2023-05-21T10:12:22;101524.41;;;22.43;75.47
73516;BME280;61763;51.416;5.442;2023-05-21T10:14:58;101516.22;;;22.31;76.62
73516;BME280;61763;51.416;5.442;2023-05-21T10:17:27;101502.88;;;22.57;76.55
73516;BME280;61763;51.416;5.442;2023-05-21T10:19:54;101505.72;;;22.97;74.94
73516;BME280;61763;51.416;5.442;2023-05-21T10:22:24;101503.78;;;22.68;74.58
73516;BME280;61763;51.416;5.442;2023-05-21T10:24:51;101520.59;;;22.34;76.37
73516;BME280;61763;51.416;5.442;2023-05-21T10:27:16;101506.75;;;22.14;78.14
73516;BME280;61763;51.416;5.442;2023-05-21T10:29:43;101494.69;;;22.05;79.18
73516;BME280;61763;51.416;5.442;2023-05-21T10:32:11;101494.84;;;22.95;76.44
73516;BME280;61763;51.416;5.442;2023-05-21T10:34:37;101502.84;;;23.08;73.78
73516;BME280;61763;51.416;5.442;2023-05-21T10:37:03;101499.53;;;23.04;73.53
73516;BME280;61763;51.416;5.442;2023-05-21T10:39:32;101484.50;;;23.28;71.45
73516;BME280;61763;51.416;5.442;2023-05-21T10:42:17;101487.25;;;23.28;75.03
73516;BME280;61763;51.416;5.442;2023-05-21T11:01:08;101482.13;;;22.94;73.47
73516;BME280;61763;51.416;5.442;2023-05-21T11:03:34;101473.19;;;23.12;73.13
73516;BME280;61763;51.416;5.442;2023-05-21T11:06:02;101465.06;;;23.20;72.29
73516;BME280;61763;51.416;5.442;2023-05-21T11:08:30;101455.31;;;23.65;72.03
73516;BME280;61763;51.416;5.442;2023-05-21T11:10:59;101444.84;;;24.25;69.40
73516;BME280;61763;51.416;5.442;2023-05-21T11:13:26;101446.25;;;23.82;69.68
73516;BME280;61763;51.416;5.442;2023-05-21T11:26:24;101428.03;;;24.19;65.50
73516;BME280;61763;51.416;5.442;2023-05-21T11:31:27;101425.25;;;24.19;65.39
73516;BME280;61763;51.416;5.442;2023-05-21T11:34:20;101418.88;;;24.46;63.83
73516;BME280;61763;51.416;5.442;2023-05-21T11:39:58;101421.31;;;23.93;66.25
73516;BME280;61763;51.416;5.442;2023-05-21T11:42:39;101428.53;;;24.04;67.25
73516;BME280;61763;51.416;5.442;2023-05-21T11:45:07;101423.56;;;24.18;65.92
73516;BME280;61763;51.416;5.442;2023-05-21T11:47:32;101420.03;;;23.78;67.01
73516;BME280;61763;51.416;5.442;2023-05-21T11:50:00;101425.72;;;23.57;68.96
73516;BME280;61763;51.416;5.442;2023-05-21T11:52:28;101419.84;;;23.22;70.44
73516;BME280;61763;51.416;5.442;2023-05-21T11:54:54;101426.53;;;23.30;72.34
73516;BME280;61763;51.416;5.442;2023-05-21T11:57:23;101416.91;;;23.53;70.75
73516;BME280;61763;51.416;5.442;2023-05-21T11:59:50;101412.59;;;23.41;70.75
73516;BME280;61763;51.416;5.442;2023-05-21T12:02:17;101409.53;;;24.01;70.58
73516;BME280;61763;51.416;5.442;2023-05-21T12:04:44;101412.03;;;24.50;68.74
73516;BME280;61763;51.416;5.442;2023-05-21T12:07:10;101407.41;;;24.23;66.88
73516;BME280;61763;51.416;5.442;2023-05-21T12:09:50;101406.75;;;24.01;67.23
73516;BME280;61763;51.416;5.442;2023-05-21T12:12:21;101401.22;;;24.11;67.72
73516;BME280;61763;51.416;5.442;2023-05-21T12:14:49;101401.06;;;24.12;68.93
73516;BME280;61763;51.416;5.442;2023-05-21T12:17:19;101399.22;;;24.03;69.03
73516;BME280;61763;51.416;5.442;2023-05-21T12:19:45;101395.91;;;24.00;68.40
73516;BME280;61763;51.416;5.442;2023-05-21T12:22:11;101394.75;;;23.92;69.32
73516;BME280;61763;51.416;5.442;2023-05-21T12:24:37;101398.78;;;24.36;67.07
73516;BME280;61763;51.416;5.442;2023-05-21T12:27:06;101397.84;;;24.17;68.90
73516;BME280;61763;51.416;5.442;2023-05-21T12:29:37;101401.09;;;24.30;68.81
73516;BME280;61763;51.416;5.442;2023-05-21T12:32:07;101395.44;;;24.60;68.09
73516;BME280;61763;51.416;5.442;2023-05-21T12:37:03;101404.19;;;25.27;64.16
73516;BME280;61763;51.416;5.442;2023-05-21T12:39:31;101393.09;;;24.37;65.87
73516;BME280;61763;51.416;5.442;2023-05-21T12:41:56;101398.06;;;24.06;71.00
73516;BME280;61763;51.416;5.442;2023-05-21T12:44:22;101395.50;;;24.22;68.74
73516;BME280;61763;51.416;5.442;2023-05-21T12:46:47;101398.31;;;24.86;65.98
73516;BME280;61763;51.416;5.442;2023-05-21T12:49:32;101401.69;;;24.98;65.44
73516;BME280;61763;51.416;5.442;2023-05-21T12:51:58;101412.28;;;25.65;63.66
73516;BME280;61763;51.416;5.442;2023-05-21T12:54:32;101406.66;;;25.12;64.29
73516;BME280;61763;51.416;5.442;2023-05-21T12:57:14;101412.63;;;25.26;62.88
73516;BME280;61763;51.416;5.442;2023-05-21T12:59:51;101409.53;;;25.29;61.96
73516;BME280;61763;51.416;5.442;2023-05-21T13:02:26;101411.78;;;25.43;62.07
73516;BME280;61763;51.416;5.442;2023-05-21T13:04:57;101407.09;;;25.70;61.65
73516;BME280;61763;51.416;5.442;2023-05-21T13:07:23;101413.88;;;25.76;61.17
73516;BME280;61763;51.416;5.442;2023-05-21T13:09:49;101409.38;;;26.44;58.91
73516;BME280;61763;51.416;5.442;2023-05-21T13:12:17;101415.59;;;27.05;54.99
73516;BME280;61763;51.416;5.442;2023-05-21T13:14:43;101408.50;;;27.19;54.37
73516;BME280;61763;51.416;5.442;2023-05-21T13:17:08;101408.84;;;26.83;55.52